Time;durP1;ratioP1;P1;durP2;ratioP2;P2;SDS_P1;SDS_P2;PMS_P1;PMS_P2;Temp;Humidity;BMP_temperature;BMP_pressure;BME280_temperature;BME280_humidity;BME280_pressure;Samples;Min_cycle;Max_cycle;Signal;HPM_P1;HPM_P2
2023/08/06 00:00:10;;;;;;;5.13;4.03;;;;;;;;;;5035288;28;20558;-37
2023/08/06 00:02:57;;;;;;;11.63;4.35;;;;;;;;;;5035737;28;20207;-37
2023/08/06 00:05:24;;;;;;;8.00;5.30;;;;;;;;;;5035455;28;20239;-37
2023/08/06 00:07:51;;;;;;;5.90;4.60;;;;;;;;;;5035250;28;20236;-37
2023/08/06 00:10:18;;;;;;;6.03;4.50;;;;;;;;;;5035120;28;20196;-37
2023/08/06 00:12:45;;;;;;;7.28;4.15;;;;;;;;;;5035057;28;20208;-37
2023/08/06 00:15:13;;;;;;;10.50;4.65;;;;;;;;;;5035243;28;20207;-37
2023/08/06 00:17:40;;;;;;;7.90;5.15;;;;;;;;;;5033949;28;20209;-38
2023/08/06 00:20:08;;;;;;;6.13;4.55;;;;;;;;;;5034900;28;20205;-37
2023/08/06 00:22:36;;;;;;;10.57;4.72;;;;;;;;;;5035085;28;20236;-37
2023/08/06 00:25:04;;;;;;;7.25;4.10;;;;;;;;;;5034812;28;20201;-37
2023/08/06 00:27:32;;;;;;;5.97;4.57;;;;;;;;;;5034521;28;20724;-37
2023/08/06 00:29:59;;;;;;;6.53;4.50;;;;;;;;;;5034959;28;20211;-37
2023/08/06 00:32:27;;;;;;;7.90;4.60;;;;;;;;;;5034604;28;20208;-37
2023/08/06 00:34:55;;;;;;;6.28;4.50;;;;;;;;;;5034741;28;20216;-37
2023/08/06 00:37:22;;;;;;;7.47;4.60;;;;;;;;;;5034679;28;20228;-37
2023/08/06 00:39:49;;;;;;;5.20;3.88;;;;;;;;;;5034760;28;20233;-37
2023/08/06 00:42:20;;;;;;;7.80;4.88;;;;;;;;;;5034445;28;20247;-38
2023/08/06 00:44:48;;;;;;;9.50;4.65;;;;;;;;;;5034849;28;20185;-37
2023/08/06 00:47:15;;;;;;;10.57;4.50;;;;;;;;;;5033257;28;20205;-37
2023/08/06 00:49:43;;;;;;;10.80;5.05;;;;;;;;;;5033208;28;20205;-37
2023/08/06 00:52:10;;;;;;;9.65;5.20;;;;;;;;;;5034139;28;20666;-38
2023/08/06 00:54:38;;;;;;;6.35;4.63;;;;;;;;;;5033347;28;20208;-38
2023/08/06 00:57:06;;;;;;;9.10;5.15;;;;;;;;;;5009827;28;20236;-37
2023/08/06 00:59:34;;;;;;;6.93;5.00;;;;;;;;;;5028748;28;20253;-37
2023/08/06 01:02:01;;;;;;;8.93;5.25;;;;;;;;;;5012680;28;20205;-37
2023/08/06 01:04:29;;;;;;;10.05;5.45;;;;;;;;;;5013947;28;20756;-37
2023/08/06 01:07:11;;;;;;;6.38;5.07;;;;;;;;;;5014274;28;20599;-37
2023/08/06 01:10:01;;;;;;;6.53;5.25;;;;;;;;;;5014588;28;20209;-37
2023/08/06 01:12:41;;;;;;;8.63;5.22;;;;;;;;;;5014337;28;20209;-37
2023/08/06 01:15:19;;;;;;;7.57;5.38;;;;;;;;;;5012948;28;20255;-37
2023/08/06 01:17:46;;;;;;;6.72;4.90;;;;;;;;;;5013342;28;20271;-37
2023/08/06 01:20:14;;;;;;;7.85;5.40;;;;;;;;;;4996777;28;20237;-37
2023/08/06 01:22:41;;;;;;;11.95;5.10;;;;;;;;;;5012902;28;20232;-37
2023/08/06 01:25:08;;;;;;;6.32;4.88;;;;;;;;;;5012932;28;20210;-37
2023/08/06 01:27:48;;;;;;;5.80;4.93;;;;;;;;;;5045847;28;20213;-38
2023/08/06 01:30:19;;;;;;;6.65;5.00;;;;;;;;;;5013914;28;20201;-37
2023/08/06 01:32:49;;;;;;;7.45;5.75;;;;;;;;;;5046322;28;20205;-37
2023/08/06 01:35:18;;;;;;;8.98;5.28;;;;;;;;;;4996265;28;20186;-37
2023/08/06 01:37:46;;;;;;;7.28;5.05;;;;;;;;;;5028972;28;20202;-38
2023/08/06 01:40:13;;;;;;;7.15;5.05;;;;;;;;;;5028976;28;20582;-37
2023/08/06 01:42:40;;;;;;;7.43;5.22;;;;;;;;;;5014372;28;20232;-37
2023/08/06 01:45:08;;;;;;;6.40;5.30;;;;;;;;;;5013803;28;20197;-37
2023/08/06 01:47:36;;;;;;;9.15;4.90;;;;;;;;;;5028892;28;20228;-37
2023/08/06 01:50:03;;;;;;;9.15;4.90;;;;;;;;;;5013729;28;20209;-37
2023/08/06 01:52:30;;;;;;;8.73;5.95;;;;;;;;;;5013597;28;20212;-37
2023/08/06 01:54:58;;;;;;;8.27;5.90;;;;;;;;;;5013958;28;20193;-37
2023/08/06 01:57:25;;;;;;;7.18;5.50;;;;;;;;;;5013771;28;20201;-37
2023/08/06 01:59:52;;;;;;;9.40;4.90;;;;;;;;;;5013954;28;20221;-37
2023/08/06 02:02:19;;;;;;;8.85;5.13;;;;;;;;;;5013868;28;20232;-37
2023/08/06 02:04:47;;;;;;;7.97;5.35;;;;;;;;;;5013360;28;20240;-37
2023/08/06 02:07:14;;;;;;;8.32;5.45;;;;;;;;;;5011520;28;20198;-37
2023/08/06 02:09:41;;;;;;;6.65;5.47;;;;;;;;;;5012942;28;20220;-37
2023/08/06 02:12:08;;;;;;;6.53;5.10;;;;;;;;;;5012748;28;20232;-37
2023/08/06 02:14:36;;;;;;;8.10;5.05;;;;;;;;;;5011491;28;20264;-37
2023/08/06 02:17:03;;;;;;;6.85;5.07;;;;;;;;;;5012713;28;20235;-37
2023/08/06 02:19:30;;;;;;;12.32;5.30;;;;;;;;;;5012417;28;20224;-37
2023/08/06 02:21:57;;;;;;;8.48;4.82;;;;;;;;;;5027554;28;20205;-37
2023/08/06 02:24:24;;;;;;;6.45;5.32;;;;;;;;;;5011527;28;20255;-37
2023/08/06 02:26:55;;;;;;;7.15;4.65;;;;;;;;;;5012135;28;20667;-37
2023/08/06 02:29:22;;;;;;;7.20;5.57;;;;;;;;;;5012279;28;20213;-38
2023/08/06 02:31:49;;;;;;;7.28;5.28;;;;;;;;;;5012104;28;20205;-38
2023/08/06 02:34:17;;;;;;;8.48;5.43;;;;;;;;;;5027387;28;20212;-37
2023/08/06 02:36:46;;;;;;;6.63;5.00;;;;;;;;;;5044093;28;20205;-37
2023/08/06 02:39:13;;;;;;;7.30;4.70;;;;;;;;;;5010773;28;20229;-37
2023/08/06 02:41:40;;;;;;;10.05;5.30;;;;;;;;;;5012193;28;20217;-37
2023/08/06 02:44:07;;;;;;;6.32;4.97;;;;;;;;;;5011970;28;20194;-37
2023/08/06 02:46:34;;;;;;;7.90;5.18;;;;;;;;;;5043811;28;20209;-37
2023/08/06 02:49:02;;;;;;;7.88;5.72;;;;;;;;;;5015092;28;20201;-37
2023/08/06 02:51:29;;;;;;;6.95;5.05;;;;;;;;;;5015578;28;20284;-37
2023/08/06 02:53:56;;;;;;;8.68;5.30;;;;;;;;;;5014255;28;20194;-37
2023/08/06 02:56:23;;;;;;;8.50;5.53;;;;;;;;;;5014060;28;20209;-37
2023/08/06 02:59:11;;;;;;;6.35;5.28;;;;;;;;;;5014714;28;20234;-38
2023/08/06 03:01:56;;;;;;;8.52;5.47;;;;;;;;;;5047310;28;20263;-37
2023/08/06 03:04:31;;;;;;;10.05;5.50;;;;;;;;;;4970517;28;1256914;-37
2023/08/06 03:06:58;;;;;;;7.15;5.30;;;;;;;;;;5031793;28;20232;-37
2023/08/06 03:09:34;;;;;;;9.10;5.20;;;;;;;;;;5015080;28;20728;-37
2023/08/06 03:12:01;;;;;;;6.15;5.22;;;;;;;;;;5014634;28;20213;-38
2023/08/06 03:14:29;;;;;;;9.02;5.97;;;;;;;;;;5031621;28;20209;-37
2023/08/06 03:16:57;;;;;;;7.25;4.85;;;;;;;;;;5015122;28;20208;-37
2023/08/06 03:19:24;;;;;;;6.00;4.97;;;;;;;;;;5014881;28;20234;-37
2023/08/06 03:21:52;;;;;;;7.80;5.57;;;;;;;;;;5014742;28;20685;-37
2023/08/06 03:24:21;;;;;;;9.45;5.80;;;;;;;;;;5029202;28;20201;-37
2023/08/06 03:26:48;;;;;;;14.25;5.88;;;;;;;;;;5034521;28;20197;-37
2023/08/06 03:29:16;;;;;;;7.57;6.07;;;;;;;;;;5034193;28;20665;-37
2023/08/06 03:31:44;;;;;;;7.47;5.50;;;;;;;;;;5034361;28;20243;-37
2023/08/06 03:34:14;;;;;;;8.32;5.53;;;;;;;;;;5033622;28;20646;-37
2023/08/06 03:36:41;;;;;;;13.88;5.82;;;;;;;;;;5034260;28;20200;-37
2023/08/06 03:39:09;;;;;;;8.18;5.78;;;;;;;;;;5033592;28;20635;-37
2023/08/06 03:41:37;;;;;;;10.48;5.65;;;;;;;;;;5033693;28;20224;-37
2023/08/06 03:44:05;;;;;;;7.00;5.18;;;;;;;;;;5034109;28;20200;-37
2023/08/06 03:46:33;;;;;;;6.90;5.70;;;;;;;;;;5032805;28;20669;-37
2023/08/06 03:49:03;;;;;;;14.23;5.68;;;;;;;;;;5065083;28;20613;-37
2023/08/06 03:51:30;;;;;;;8.15;5.90;;;;;;;;;;5032845;28;20200;-37
2023/08/06 03:53:58;;;;;;;10.57;6.07;;;;;;;;;;5031695;28;20201;-37
2023/08/06 03:56:25;;;;;;;6.55;5.43;;;;;;;;;;5033374;28;20577;-37
2023/08/06 03:58:52;;;;;;;10.60;5.68;;;;;;;;;;5034744;28;20205;-37
2023/08/06 04:01:19;;;;;;;9.32;5.75;;;;;;;;;;5031121;28;20224;-37
2023/08/06 04:03:47;;;;;;;7.70;5.65;;;;;;;;;;5033815;28;20250;-37
2023/08/06 04:06:15;;;;;;;8.00;5.22;;;;;;;;;;5034434;28;20252;-37
2023/08/06 04:08:42;;;;;;;8.07;5.28;;;;;;;;;;5034970;28;20197;-37
2023/08/06 04:11:09;;;;;;;15.95;5.53;;;;;;;;;;5033835;28;20189;-37
2023/08/06 04:13:36;;;;;;;6.72;5.32;;;;;;;;;;5034498;28;20563;-38
2023/08/06 04:16:04;;;;;;;8.65;6.05;;;;;;;;;;5034424;28;20200;-37
2023/08/06 04:18:32;;;;;;;7.50;5.53;;;;;;;;;;5032331;28;20689;-37
2023/08/06 04:21:01;;;;;;;11.30;4.70;;;;;;;;;;5015807;28;20703;-38
2023/08/06 04:23:29;;;;;;;6.95;5.13;;;;;;;;;;5032339;28;20221;-37
2023/08/06 04:26:00;;;;;;;8.68;5.47;;;;;;;;;;5029850;28;20201;-38
2023/08/06 04:28:31;;;;;;;6.18;4.97;;;;;;;;;;5032268;28;20197;-37
2023/08/06 04:30:59;;;;;;;5.65;4.93;;;;;;;;;;5039735;28;20688;-37
2023/08/06 04:33:28;;;;;;;7.43;4.70;;;;;;;;;;5039135;28;20205;-37
2023/08/06 04:35:59;;;;;;;6.60;4.75;;;;;;;;;;5040425;28;20709;-39
2023/08/06 04:38:27;;;;;;;7.00;4.85;;;;;;;;;;5021918;28;20204;-38
2023/08/06 04:40:55;;;;;;;6.15;5.03;;;;;;;;;;5039390;28;20217;-38
2023/08/06 04:43:24;;;;;;;6.25;4.55;;;;;;;;;;5038367;28;20214;-38
2023/08/06 04:45:54;;;;;;;6.10;4.88;;;;;;;;;;5004725;28;20658;-38
2023/08/06 04:48:22;;;;;;;9.55;4.60;;;;;;;;;;5022727;28;20222;-37
2023/08/06 04:50:50;;;;;;;5.85;4.18;;;;;;;;;;5024817;28;20295;-38
2023/08/06 04:53:17;;;;;;;11.70;4.40;;;;;;;;;;5033783;28;20193;-38
2023/08/06 04:55:44;;;;;;;6.90;4.45;;;;;;;;;;5032779;28;20201;-38
2023/08/06 04:58:13;;;;;;;7.80;4.88;;;;;;;;;;5023612;28;20232;-38
2023/08/06 05:00:40;;;;;;;7.70;4.70;;;;;;;;;;5014912;28;20227;-38
2023/08/06 05:03:07;;;;;;;9.05;4.65;;;;;;;;;;5027753;28;20196;-39
2023/08/06 05:05:34;;;;;;;6.70;4.57;;;;;;;;;;5031439;28;20232;-38
2023/08/06 05:08:01;;;;;;;12.38;4.93;;;;;;;;;;5033159;28;20203;-39
2023/08/06 05:10:28;;;;;;;7.32;4.85;;;;;;;;;;5032911;28;20349;-38
2023/08/06 05:12:56;;;;;;;6.22;4.25;;;;;;;;;;5033454;28;20205;-38
2023/08/06 05:15:25;;;;;;;6.22;4.50;;;;;;;;;;5031333;28;20706;-37
2023/08/06 05:17:52;;;;;;;5.18;4.20;;;;;;;;;;5033558;28;20197;-37
2023/08/06 05:20:20;;;;;;;6.97;4.55;;;;;;;;;;5033186;28;20557;-37
2023/08/06 05:22:47;;;;;;;6.13;4.30;;;;;;;;;;5032378;28;20208;-38
2023/08/06 05:25:14;;;;;;;8.63;4.78;;;;;;;;;;5033050;28;20212;-39
2023/08/06 05:27:42;;;;;;;7.30;4.80;;;;;;;;;;5032789;28;20193;-38
2023/08/06 05:30:10;;;;;;;8.85;5.22;;;;;;;;;;5031973;28;22107;-37
2023/08/06 05:32:37;;;;;;;7.20;4.78;;;;;;;;;;5033958;28;20606;-38
2023/08/06 05:35:06;;;;;;;6.38;4.60;;;;;;;;;;5034159;28;20274;-37
2023/08/06 05:37:34;;;;;;;6.15;4.63;;;;;;;;;;5033902;28;20208;-37
2023/08/06 05:40:02;;;;;;;8.77;4.50;;;;;;;;;;5015329;28;20233;-37
2023/08/06 05:42:29;;;;;;;5.15;4.28;;;;;;;;;;5021878;28;20224;-37
2023/08/06 05:44:56;;;;;;;11.27;5.03;;;;;;;;;;5032433;28;20647;-37
2023/08/06 05:47:24;;;;;;;7.75;4.72;;;;;;;;;;5033119;28;20232;-37
2023/08/06 05:49:51;;;;;;;6.03;4.50;;;;;;;;;;5032201;28;20236;-38
2023/08/06 05:52:18;;;;;;;5.95;4.45;;;;;;;;;;5032605;28;20224;-37
2023/08/06 05:54:45;;;;;;;7.10;4.72;;;;;;;;;;5032072;28;20224;-37
2023/08/06 05:57:12;;;;;;;4.88;4.20;;;;;;;;;;5032696;28;20590;-37
2023/08/06 05:59:40;;;;;;;5.50;4.22;;;;;;;;;;5032454;28;20225;-37
2023/08/06 06:02:08;;;;;;;5.53;3.85;;;;;;;;;;5032722;28;20225;-37
2023/08/06 06:04:35;;;;;;;11.50;4.03;;;;;;;;;;5032200;28;20331;-37
2023/08/06 06:07:02;;;;;;;5.72;4.32;;;;;;;;;;5032074;28;20712;-37
2023/08/06 06:09:29;;;;;;;7.55;4.60;;;;;;;;;;5030949;28;20229;-39
2023/08/06 06:11:57;;;;;;;8.73;4.15;;;;;;;;;;5032000;28;20302;-39
2023/08/06 06:14:24;;;;;;;6.78;4.55;;;;;;;;;;5031407;28;20242;-38
2023/08/06 06:16:52;;;;;;;5.07;4.20;;;;;;;;;;5029234;28;20216;-38
2023/08/06 06:19:20;;;;;;;7.00;4.25;;;;;;;;;;5031940;28;20219;-37
2023/08/06 06:21:47;;;;;;;5.05;4.05;;;;;;;;;;5032990;28;20693;-38
2023/08/06 06:24:14;;;;;;;5.60;3.97;;;;;;;;;;5035452;28;20292;-37
2023/08/06 06:26:41;;;;;;;5.90;4.28;;;;;;;;;;5035002;28;20597;-37
2023/08/06 06:29:08;;;;;;;6.50;4.00;;;;;;;;;;5036536;28;20216;-37
2023/08/06 06:31:36;;;;;;;6.45;4.13;;;;;;;;;;5035975;28;20228;-37
2023/08/06 06:34:03;;;;;;;7.18;3.72;;;;;;;;;;5033658;28;20216;-37
2023/08/06 06:36:30;;;;;;;7.40;3.72;;;;;;;;;;5035890;28;20224;-38
2023/08/06 06:38:57;;;;;;;12.43;4.03;;;;;;;;;;5035102;28;20231;-39
2023/08/06 06:41:26;;;;;;;4.85;3.95;;;;;;;;;;5034957;28;20225;-36
2023/08/06 06:43:53;;;;;;;6.72;3.38;;;;;;;;;;5033014;28;20312;-37
2023/08/06 06:46:20;;;;;;;6.55;3.42;;;;;;;;;;5034110;28;20225;-37
2023/08/06 06:48:47;;;;;;;5.90;3.63;;;;;;;;;;5034757;28;20251;-37
2023/08/06 06:51:14;;;;;;;7.15;3.78;;;;;;;;;;5035605;28;20232;-37
2023/08/06 06:53:41;;;;;;;6.32;3.67;;;;;;;;;;5035458;28;20220;-37
2023/08/06 06:56:09;;;;;;;4.35;3.53;;;;;;;;;;5035549;28;20558;-37
2023/08/06 06:58:38;;;;;;;5.38;3.40;;;;;;;;;;5035713;28;20225;-37
2023/08/06 07:01:05;;;;;;;4.45;3.50;;;;;;;;;;5034525;28;20243;-37
2023/08/06 07:03:33;;;;;;;5.68;3.80;;;;;;;;;;5034802;28;20240;-38
2023/08/06 07:06:00;;;;;;;5.30;4.13;;;;;;;;;;5035699;28;20646;-37
2023/08/06 07:08:27;;;;;;;5.60;3.97;;;;;;;;;;5035472;28;20217;-37
2023/08/06 07:11:05;;;;;;;4.95;3.70;;;;;;;;;;5035450;28;20246;-37
2023/08/06 07:13:34;;;;;;;9.85;3.83;;;;;;;;;;5035698;28;20220;-37
2023/08/06 07:16:01;;;;;;;4.00;3.53;;;;;;;;;;5035449;28;20285;-37
2023/08/06 07:18:29;;;;;;;9.45;3.85;;;;;;;;;;5035662;28;20716;-36
2023/08/06 07:20:56;;;;;;;8.43;4.03;;;;;;;;;;5034644;28;20290;-37
2023/08/06 07:23:24;;;;;;;5.35;3.75;;;;;;;;;;5035109;28;20238;-37
2023/08/06 07:25:52;;;;;;;4.70;3.75;;;;;;;;;;5034815;28;20217;-36
2023/08/06 07:28:19;;;;;;;5.72;4.65;;;;;;;;;;5032106;28;20247;-37
2023/08/06 07:30:46;;;;;;;6.05;4.13;;;;;;;;;;5027933;28;20241;-38
2023/08/06 07:33:14;;;;;;;5.68;3.78;;;;;;;;;;5026345;28;20221;-38
2023/08/06 07:35:41;;;;;;;4.78;3.70;;;;;;;;;;5028606;28;20224;-38
2023/08/06 07:38:08;;;;;;;4.93;3.60;;;;;;;;;;5014468;28;20221;-39
2023/08/06 07:40:37;;;;;;;3.88;3.45;;;;;;;;;;5020607;28;20243;-38
2023/08/06 07:43:05;;;;;;;8.15;3.65;;;;;;;;;;5034512;28;20294;-39
2023/08/06 07:45:34;;;;;;;6.07;4.28;;;;;;;;;;5031957;28;20578;-38
2023/08/06 07:48:02;;;;;;;7.35;3.53;;;;;;;;;;5034940;28;20241;-38
2023/08/06 07:50:29;;;;;;;4.40;3.80;;;;;;;;;;5033020;28;20235;-39
2023/08/06 07:52:56;;;;;;;5.57;3.42;;;;;;;;;;5031431;28;20212;-38
2023/08/06 07:55:24;;;;;;;5.65;3.78;;;;;;;;;;5033258;28;20231;-38
2023/08/06 07:57:51;;;;;;;5.93;3.88;;;;;;;;;;5033935;28;20220;-39
2023/08/06 08:00:19;;;;;;;6.00;4.20;;;;;;;;;;5034304;28;20218;-38
2023/08/06 08:02:46;;;;;;;5.70;3.92;;;;;;;;;;5033362;28;20193;-38
2023/08/06 08:05:13;;;;;;;6.63;4.00;;;;;;;;;;5033899;28;20223;-38
2023/08/06 08:07:41;;;;;;;5.47;3.75;;;;;;;;;;5033585;28;20223;-38
2023/08/06 08:10:08;;;;;;;4.93;4.18;;;;;;;;;;5033223;28;20200;-39
2023/08/06 08:12:35;;;;;;;5.07;4.07;;;;;;;;;;5034186;28;20385;-38
2023/08/06 08:15:03;;;;;;;4.82;3.92;;;;;;;;;;5034019;28;20208;-39
2023/08/06 08:17:30;;;;;;;5.63;3.85;;;;;;;;;;5030920;28;20208;-39
2023/08/06 08:19:57;;;;;;;4.95;3.78;;;;;;;;;;5032848;28;20255;-39
2023/08/06 08:22:25;;;;;;;6.72;3.78;;;;;;;;;;5032976;28;20668;-38
2023/08/06 08:24:52;;;;;;;4.82;3.70;;;;;;;;;;5032634;28;21032;-39
2023/08/06 08:27:19;;;;;;;4.53;3.40;;;;;;;;;;5033194;28;20204;-39
2023/08/06 08:29:46;;;;;;;5.45;4.30;;;;;;;;;;5033187;28;20255;-38
2023/08/06 08:32:13;;;;;;;4.88;3.65;;;;;;;;;;5030779;28;20204;-38
2023/08/06 08:34:40;;;;;;;6.72;3.60;;;;;;;;;;5032750;28;20200;-38
2023/08/06 08:37:08;;;;;;;5.55;3.95;;;;;;;;;;5031842;28;20208;-38
2023/08/06 08:39:35;;;;;;;4.30;3.35;;;;;;;;;;5032114;28;20201;-38
2023/08/06 08:42:03;;;;;;;5.80;3.58;;;;;;;;;;5032746;28;20228;-38
2023/08/06 08:44:32;;;;;;;4.88;3.67;;;;;;;;;;5032734;28;20197;-38
2023/08/06 08:46:59;;;;;;;5.72;3.38;;;;;;;;;;5030323;28;20204;-41
2023/08/06 08:49:27;;;;;;;4.28;3.88;;;;;;;;;;5032677;28;20208;-39
2023/08/06 08:51:55;;;;;;;4.90;3.90;;;;;;;;;;5031226;28;20204;-39
2023/08/06 08:54:23;;;;;;;6.40;3.30;;;;;;;;;;5032058;28;20292;-40
2023/08/06 08:56:50;;;;;;;5.82;4.07;;;;;;;;;;5033298;28;20197;-40
2023/08/06 08:59:18;;;;;;;6.22;4.28;;;;;;;;;;5033037;28;20193;-39
2023/08/06 09:01:50;;;;;;;4.75;3.63;;;;;;;;;;5029537;28;20232;-39
2023/08/06 09:04:18;;;;;;;8.20;3.80;;;;;;;;;;5030825;28;20247;-39
2023/08/06 09:06:50;;;;;;;6.07;4.18;;;;;;;;;;5032556;28;20626;-39
2023/08/06 09:09:24;;;;;;;5.95;4.30;;;;;;;;;;5032221;28;20188;-40
2023/08/06 09:11:51;;;;;;;7.65;3.83;;;;;;;;;;5031923;28;20216;-39
2023/08/06 09:14:19;;;;;;;4.85;4.00;;;;;;;;;;5032458;28;20200;-39
2023/08/06 09:16:46;;;;;;;5.63;4.18;;;;;;;;;;5032618;28;20223;-38
2023/08/06 09:19:17;;;;;;;7.28;4.38;;;;;;;;;;5032147;28;20650;-37
2023/08/06 09:21:48;;;;;;;7.93;4.65;;;;;;;;;;5033703;28;20212;-37
2023/08/06 09:24:15;;;;;;;6.60;4.68;;;;;;;;;;5032034;28;20593;-39
2023/08/06 09:26:44;;;;;;;8.32;4.95;;;;;;;;;;5033642;28;20204;-38
2023/08/06 09:29:11;;;;;;;6.00;3.92;;;;;;;;;;5033732;28;20212;-37
2023/08/06 09:31:57;;;;;;;7.15;3.95;;;;;;;;;;5027166;28;20224;-38
2023/08/06 09:34:25;;;;;;;9.40;4.20;;;;;;;;;;5030602;28;20262;-37
2023/08/06 09:36:53;;;;;;;5.93;4.05;;;;;;;;;;5033512;28;20552;-38
2023/08/06 09:39:30;;;;;;;7.00;4.20;;;;;;;;;;5032223;28;20197;-38
2023/08/06 09:41:59;;;;;;;8.45;4.50;;;;;;;;;;5033613;28;20232;-37
2023/08/06 09:44:27;;;;;;;4.85;3.92;;;;;;;;;;5033875;28;20213;-38
2023/08/06 09:46:56;;;;;;;5.28;4.13;;;;;;;;;;5033617;28;20262;-38
2023/08/06 09:49:43;;;;;;;10.30;4.10;;;;;;;;;;5033571;28;20266;-38
2023/08/06 09:52:15;;;;;;;4.28;3.58;;;;;;;;;;5033910;28;20200;-38
2023/08/06 09:54:43;;;;;;;11.18;3.88;;;;;;;;;;5026952;28;20209;-37
2023/08/06 09:57:12;;;;;;;11.70;4.00;;;;;;;;;;5018815;28;20209;-38
2023/08/06 09:59:39;;;;;;;5.32;3.40;;;;;;;;;;5013715;28;20201;-37
2023/08/06 10:02:12;;;;;;;4.40;3.40;;;;;;;;;;5013237;28;20705;-37
2023/08/06 10:04:39;;;;;;;4.25;3.63;;;;;;;;;;5012017;28;20232;-38
2023/08/06 10:07:08;;;;;;;5.70;3.75;;;;;;;;;;5012716;28;20260;-38
2023/08/06 10:09:35;;;;;;;8.07;3.70;;;;;;;;;;5012806;28;20284;-38
2023/08/06 10:12:03;;;;;;;5.30;3.60;;;;;;;;;;5013136;28;20204;-38
2023/08/06 10:14:36;;;;;;;4.90;3.55;;;;;;;;;;5013306;28;20235;-38
2023/08/06 10:17:03;;;;;;;5.72;3.67;;;;;;;;;;5011446;28;20208;-38
2023/08/06 10:19:31;;;;;;;11.63;4.00;;;;;;;;;;5043699;28;20201;-38
2023/08/06 10:22:15;;;;;;;5.38;4.05;;;;;;;;;;5044959;28;20233;-38
2023/08/06 10:24:55;;;;;;;5.28;3.60;;;;;;;;;;5013238;28;20193;-38
2023/08/06 10:27:28;;;;;;;6.82;3.80;;;;;;;;;;5012489;28;20243;-38
2023/08/06 10:29:55;;;;;;;5.00;3.80;;;;;;;;;;5013319;28;20537;-38
2023/08/06 10:32:49;;;;;;;7.72;3.97;;;;;;;;;;5012558;28;20218;-38
2023/08/06 10:35:34;;;;;;;7.53;4.07;;;;;;;;;;5012291;28;20251;-38
2023/08/06 10:38:07;;;;;;;6.22;4.07;;;;;;;;;;5012971;28;20208;-39
2023/08/06 10:40:35;;;;;;;6.32;3.83;;;;;;;;;;5013214;28;20205;-38
2023/08/06 10:43:04;;;;;;;7.15;3.90;;;;;;;;;;5013229;28;20202;-37
2023/08/06 10:45:34;;;;;;;4.05;3.45;;;;;;;;;;5013373;28;20205;-38
2023/08/06 10:48:02;;;;;;;4.45;3.60;;;;;;;;;;5013343;28;20253;-38
2023/08/06 10:50:31;;;;;;;5.13;4.20;;;;;;;;;;5012858;28;20205;-38
2023/08/06 10:53:04;;;;;;;5.40;3.45;;;;;;;;;;5026882;28;20204;-38
2023/08/06 10:55:32;;;;;;;6.30;3.33;;;;;;;;;;5026378;28;20228;-38
2023/08/06 10:57:59;;;;;;;6.85;3.78;;;;;;;;;;5015900;28;20549;-38
2023/08/06 11:00:26;;;;;;;4.25;3.75;;;;;;;;;;5032305;28;20207;-37
2023/08/06 11:02:55;;;;;;;5.75;4.00;;;;;;;;;;5031905;28;20217;-38
2023/08/06 11:05:22;;;;;;;5.40;3.60;;;;;;;;;;5032201;28;20233;-38
2023/08/06 11:07:51;;;;;;;6.57;3.72;;;;;;;;;;5032895;28;20200;-38
2023/08/06 11:10:18;;;;;;;5.32;3.70;;;;;;;;;;5036042;28;20289;-38
2023/08/06 11:12:45;;;;;;;5.10;3.53;;;;;;;;;;5036091;28;20259;-37
2023/08/06 11:15:12;;;;;;;5.90;3.88;;;;;;;;;;5035853;28;20212;-39
2023/08/06 11:17:41;;;;;;;5.82;3.55;;;;;;;;;;5034399;28;20529;-38
2023/08/06 11:20:08;;;;;;;8.68;3.80;;;;;;;;;;5032125;28;20197;-39
2023/08/06 11:22:36;;;;;;;5.80;3.95;;;;;;;;;;5032475;28;20224;-40
2023/08/06 11:25:05;;;;;;;9.98;3.53;;;;;;;;;;5035171;28;20204;-40
2023/08/06 11:27:33;;;;;;;4.95;3.78;;;;;;;;;;5034987;28;20204;-40
2023/08/06 11:30:00;;;;;;;6.15;3.88;;;;;;;;;;5034687;28;20197;-40
2023/08/06 11:32:28;;;;;;;5.75;3.28;;;;;;;;;;5035091;28;20293;-43
2023/08/06 11:34:55;;;;;;;4.18;2.95;;;;;;;;;;5034538;28;21349;-40
2023/08/06 11:37:26;;;;;;;7.30;3.33;;;;;;;;;;5034301;28;20209;-40
2023/08/06 11:39:53;;;;;;;7.72;3.40;;;;;;;;;;5031986;28;20220;-40
2023/08/06 11:42:20;;;;;;;5.50;3.20;;;;;;;;;;5016666;28;20216;-40
2023/08/06 11:44:48;;;;;;;3.95;3.10;;;;;;;;;;5033564;28;20216;-40
2023/08/06 11:47:16;;;;;;;6.28;3.85;;;;;;;;;;5032971;28;20193;-38
2023/08/06 11:49:46;;;;;;;4.90;3.45;;;;;;;;;;5033962;28;20205;-40
2023/08/06 11:52:22;;;;;;;4.40;3.50;;;;;;;;;;5034190;28;20613;-40
2023/08/06 11:55:06;;;;;;;7.93;3.50;;;;;;;;;;5033618;28;20587;-38
2023/08/06 11:57:44;;;;;;;6.00;3.13;;;;;;;;;;5031961;28;20199;-40
2023/08/06 12:00:13;;;;;;;3.88;3.47;;;;;;;;;;5032911;28;20181;-38
2023/08/06 12:02:44;;;;;;;10.63;3.75;;;;;;;;;;5033597;28;20221;-39
2023/08/06 12:05:13;;;;;;;6.05;3.80;;;;;;;;;;5033335;28;20347;-38
2023/08/06 12:07:46;;;;;;;11.77;3.58;;;;;;;;;;5033770;28;20315;-39
2023/08/06 12:10:13;;;;;;;5.57;3.50;;;;;;;;;;5031618;28;20203;-38
2023/08/06 12:12:41;;;;;;;3.95;3.08;;;;;;;;;;5033716;28;20198;-37
2023/08/06 12:15:10;;;;;;;9.07;3.60;;;;;;;;;;5033316;28;20613;-39
2023/08/06 12:17:38;;;;;;;4.95;3.50;;;;;;;;;;5033311;28;20204;-39
2023/08/06 12:20:06;;;;;;;3.88;3.17;;;;;;;;;;5034226;28;20205;-37
2023/08/06 12:22:38;;;;;;;6.88;2.97;;;;;;;;;;5034266;28;20225;-38
2023/08/06 12:25:08;;;;;;;5.10;3.50;;;;;;;;;;5032047;28;20637;-38
2023/08/06 12:27:35;;;;;;;6.75;3.25;;;;;;;;;;5034733;28;20594;-37
2023/08/06 12:30:04;;;;;;;6.57;3.60;;;;;;;;;;5034029;28;20193;-39
2023/08/06 12:32:31;;;;;;;7.03;3.50;;;;;;;;;;5034305;28;20661;-38
2023/08/06 12:34:59;;;;;;;8.10;3.75;;;;;;;;;;5034191;28;20197;-38
2023/08/06 12:37:26;;;;;;;5.65;3.35;;;;;;;;;;5030963;28;20204;-38
2023/08/06 12:39:53;;;;;;;5.95;3.92;;;;;;;;;;5033470;28;20207;-38
2023/08/06 12:42:20;;;;;;;5.82;4.03;;;;;;;;;;5034683;28;20558;-38
2023/08/06 12:44:51;;;;;;;6.07;3.65;;;;;;;;;;5034241;28;20692;-38
2023/08/06 12:47:19;;;;;;;7.97;4.20;;;;;;;;;;5034390;28;20688;-38
2023/08/06 12:49:47;;;;;;;5.38;4.05;;;;;;;;;;5034526;28;20201;-38
2023/08/06 12:52:15;;;;;;;7.47;3.70;;;;;;;;;;5034238;28;20208;-38
2023/08/06 12:54:42;;;;;;;4.07;3.45;;;;;;;;;;5031841;28;20204;-38
2023/08/06 12:57:09;;;;;;;9.32;3.33;;;;;;;;;;5032400;28;20201;-39
2023/08/06 12:59:36;;;;;;;5.40;3.90;;;;;;;;;;5034475;28;20224;-39
2023/08/06 13:02:04;;;;;;;7.15;3.72;;;;;;;;;;5034124;28;20224;-37
2023/08/06 13:04:32;;;;;;;4.28;3.67;;;;;;;;;;5034156;28;20579;-38
2023/08/06 13:07:00;;;;;;;4.68;3.25;;;;;;;;;;5033943;28;20247;-37
2023/08/06 13:09:27;;;;;;;7.35;3.05;;;;;;;;;;5033366;28;20227;-38
2023/08/06 13:11:59;;;;;;;7.00;3.30;;;;;;;;;;5030164;28;20212;-37
2023/08/06 13:14:28;;;;;;;6.03;3.20;;;;;;;;;;5031123;28;20215;-38
2023/08/06 13:16:55;;;;;;;4.68;3.10;;;;;;;;;;5028928;28;20228;-37
2023/08/06 13:19:23;;;;;;;5.85;3.25;;;;;;;;;;5029449;28;20234;-38
2023/08/06 13:21:51;;;;;;;8.77;3.25;;;;;;;;;;5031772;28;20228;-38
2023/08/06 13:24:18;;;;;;;5.97;3.25;;;;;;;;;;5032290;28;20226;-38
2023/08/06 13:26:46;;;;;;;6.22;3.25;;;;;;;;;;5031914;28;20247;-39
2023/08/06 13:29:13;;;;;;;11.05;3.38;;;;;;;;;;5030478;28;20223;-37
2023/08/06 13:31:40;;;;;;;5.53;2.90;;;;;;;;;;5030358;28;20228;-37
2023/08/06 13:34:08;;;;;;;7.72;3.47;;;;;;;;;;5032188;28;20217;-37
2023/08/06 13:36:35;;;;;;;6.13;3.50;;;;;;;;;;5031792;28;20728;-38
2023/08/06 13:39:05;;;;;;;14.30;3.67;;;;;;;;;;5032609;28;20267;-37
2023/08/06 13:41:32;;;;;;;6.78;4.45;;;;;;;;;;5029098;28;20719;-40
2023/08/06 13:43:59;;;;;;;7.60;3.40;;;;;;;;;;5030031;28;20630;-39
2023/08/06 13:46:26;;;;;;;5.90;3.30;;;;;;;;;;5030657;28;20274;-40
2023/08/06 13:48:53;;;;;;;3.50;2.65;;;;;;;;;;5031356;28;20227;-39
2023/08/06 13:51:21;;;;;;;4.05;3.10;;;;;;;;;;5030779;28;20266;-40
2023/08/06 13:53:48;;;;;;;3.80;3.15;;;;;;;;;;5029939;28;20703;-39
2023/08/06 13:56:17;;;;;;;5.43;3.30;;;;;;;;;;5030752;28;20232;-39
2023/08/06 13:58:44;;;;;;;4.03;2.75;;;;;;;;;;5031842;28;20697;-39
2023/08/06 14:01:13;;;;;;;4.93;2.97;;;;;;;;;;5030348;28;20217;-40
2023/08/06 14:03:40;;;;;;;4.55;2.92;;;;;;;;;;5031549;28;20236;-39
2023/08/06 14:06:08;;;;;;;6.00;2.95;;;;;;;;;;5028779;28;20240;-40
2023/08/06 14:08:35;;;;;;;4.57;3.40;;;;;;;;;;5031363;28;20200;-39
2023/08/06 14:11:02;;;;;;;5.47;2.95;;;;;;;;;;5031442;28;20303;-38
2023/08/06 14:13:29;;;;;;;6.55;2.50;;;;;;;;;;5029753;28;20232;-38
2023/08/06 14:15:56;;;;;;;5.25;2.40;;;;;;;;;;5031371;28;20200;-38
2023/08/06 14:18:24;;;;;;;4.68;2.10;;;;;;;;;;5031725;28;20228;-38
2023/08/06 14:20:51;;;;;;;3.72;2.17;;;;;;;;;;5031146;28;20188;-39
2023/08/06 14:23:18;;;;;;;1.98;1.33;;;;;;;;;;5017612;28;20208;-37
2023/08/06 14:25:45;;;;;;;6.28;1.75;;;;;;;;;;5031644;28;20196;-39
2023/08/06 14:28:12;;;;;;;2.28;1.67;;;;;;;;;;5032811;28;20279;-39
2023/08/06 14:30:40;;;;;;;3.55;1.73;;;;;;;;;;5030796;28;20205;-39
2023/08/06 14:33:07;;;;;;;1.92;1.60;;;;;;;;;;5031529;28;20263;-40
2023/08/06 14:35:53;;;;;;;3.28;1.70;;;;;;;;;;5031127;28;20227;-39
2023/08/06 14:38:20;;;;;;;2.40;1.70;;;;;;;;;;5031707;28;20662;-37
2023/08/06 14:40:47;;;;;;;2.50;1.60;;;;;;;;;;5032592;28;20208;-37
2023/08/06 14:43:14;;;;;;;2.17;1.63;;;;;;;;;;5030768;28;20308;-38
2023/08/06 14:45:42;;;;;;;3.17;1.90;;;;;;;;;;5034453;28;20193;-39
2023/08/06 14:48:09;;;;;;;3.50;2.28;;;;;;;;;;5036194;28;20244;-39